sensor_id;sensor_type;location;lat;lon;timestamp;P1;P2;P0
68841;PMS5003;55849;48.482;2.332;2022-07-15T00:00:48;1.50;1.50;1.00
68841;PMS5003;55849;48.482;2.332;2022-07-15T00:03:49;4.75;3.00;2.50
68841;PMS5003;55849;48.482;2.332;2022-07-15T00:06:51;4.00;4.00;3.50
68841;PMS5003;55849;48.482;2.332;2022-07-15T00:09:53;6.00;5.25;4.00
68841;PMS5003;55849;48.482;2.332;2022-07-15T00:13:13;4.75;4.75;3.00
68841;PMS5003;55849;48.482;2.332;2022-07-15T00:16:15;7.25;6.25;4.50
68841;PMS5003;55849;48.482;2.332;2022-07-15T00:19:17;6.00;5.00;4.25
68841;PMS5003;55849;48.482;2.332;2022-07-15T00:22:19;7.25;7.25;4.25
68841;PMS5003;55849;48.482;2.332;2022-07-15T00:25:21;7.00;6.50;4.25
68841;PMS5003;55849;48.482;2.332;2022-07-15T00:28:24;7.25;6.75;6.00
68841;PMS5003;55849;48.482;2.332;2022-07-15T00:31:28;9.75;9.50;6.25
68841;PMS5003;55849;48.482;2.332;2022-07-15T00:34:30;14.50;8.50;6.00
68841;PMS5003;55849;48.482;2.332;2022-07-15T00:37:31;9.75;7.25;5.00
68841;PMS5003;55849;48.482;2.332;2022-07-15T00:40:38;8.25;7.00;5.00
68841;PMS5003;55849;48.482;2.332;2022-07-15T00:43:42;5.25;4.25;4.00
68841;PMS5003;55849;48.482;2.332;2022-07-15T00:46:43;5.25;5.25;3.00
68841;PMS5003;55849;48.482;2.332;2022-07-15T00:49:45;7.00;5.75;4.00
68841;PMS5003;55849;48.482;2.332;2022-07-15T00:52:48;6.25;6.25;4.00
68841;PMS5003;55849;48.482;2.332;2022-07-15T00:55:57;4.25;4.25;3.00
68841;PMS5003;55849;48.482;2.332;2022-07-15T00:59:03;4.00;4.00;3.00
68841;PMS5003;55849;48.482;2.332;2022-07-15T01:02:07;7.00;3.50;3.00
68841;PMS5003;55849;48.482;2.332;2022-07-15T01:05:10;3.75;3.75;3.00
68841;PMS5003;55849;48.482;2.332;2022-07-15T01:08:12;3.00;3.00;2.25
68841;PMS5003;55849;48.482;2.332;2022-07-15T01:11:14;5.75;5.75;3.50
68841;PMS5003;55849;48.482;2.332;2022-07-15T01:14:17;3.75;3.75;2.50
68841;PMS5003;55849;48.482;2.332;2022-07-15T01:17:19;3.00;3.00;2.25
68841;PMS5003;55849;48.482;2.332;2022-07-15T01:20:21;3.00;3.00;2.00
68841;PMS5003;55849;48.482;2.332;2022-07-15T01:23:24;7.50;4.50;3.00
68841;PMS5003;55849;48.482;2.332;2022-07-15T01:26:26;4.00;4.00;2.75
68841;PMS5003;55849;48.482;2.332;2022-07-15T01:29:28;2.25;2.25;2.00
68841;PMS5003;55849;48.482;2.332;2022-07-15T01:32:30;3.00;2.25;2.00
68841;PMS5003;55849;48.482;2.332;2022-07-15T01:35:31;4.00;4.00;3.00
68841;PMS5003;55849;48.482;2.332;2022-07-15T01:38:35;4.25;2.00;2.00
68841;PMS5003;55849;48.482;2.332;2022-07-15T01:41:36;3.50;3.50;2.25
68841;PMS5003;55849;48.482;2.332;2022-07-15T01:44:38;2.75;2.75;2.50
68841;PMS5003;55849;48.482;2.332;2022-07-15T01:47:43;3.75;3.75;2.00
68841;PMS5003;55849;48.482;2.332;2022-07-15T01:50:45;3.00;3.00;2.75
68841;PMS5003;55849;48.482;2.332;2022-07-15T01:53:47;4.25;4.25;2.00
68841;PMS5003;55849;48.482;2.332;2022-07-15T01:56:49;5.00;3.00;2.25
68841;PMS5003;55849;48.482;2.332;2022-07-15T01:59:51;2.50;2.00;1.25
68841;PMS5003;55849;48.482;2.332;2022-07-15T02:02:53;2.50;2.00;2.00
68841;PMS5003;55849;48.482;2.332;2022-07-15T02:05:55;2.25;2.25;1.50
68841;PMS5003;55849;48.482;2.332;2022-07-15T02:08:58;4.00;4.00;2.00
68841;PMS5003;55849;48.482;2.332;2022-07-15T02:11:59;2.00;2.00;1.00
68841;PMS5003;55849;48.482;2.332;2022-07-15T02:15:01;2.00;2.00;1.00
68841;PMS5003;55849;48.482;2.332;2022-07-15T02:18:03;3.00;2.00;2.00
68841;PMS5003;55849;48.482;2.332;2022-07-15T02:21:05;2.50;2.00;1.50
68841;PMS5003;55849;48.482;2.332;2022-07-15T02:24:08;2.00;2.00;2.00
68841;PMS5003;55849;48.482;2.332;2022-07-15T02:27:10;2.25;2.00;2.00
68841;PMS5003;55849;48.482;2.332;2022-07-15T02:30:12;3.00;3.00;2.00
68841;PMS5003;55849;48.482;2.332;2022-07-15T02:33:14;5.00;3.75;3.00
68841;PMS5003;55849;48.482;2.332;2022-07-15T02:36:17;3.00;2.25;2.00
68841;PMS5003;55849;48.482;2.332;2022-07-15T02:39:20;5.25;4.00;2.25
68841;PMS5003;55849;48.482;2.332;2022-07-15T02:42:21;4.00;3.00;2.00
68841;PMS5003;55849;48.482;2.332;2022-07-15T02:45:23;2.25;2.25;2.00
68841;PMS5003;55849;48.482;2.332;2022-07-15T02:48:26;2.00;2.00;1.75
68841;PMS5003;55849;48.482;2.332;2022-07-15T02:51:28;2.25;2.00;1.25
68841;PMS5003;55849;48.482;2.332;2022-07-15T02:54:31;3.25;3.25;2.00
68841;PMS5003;55849;48.482;2.332;2022-07-15T02:57:32;1.75;1.75;1.00
68841;PMS5003;55849;48.482;2.332;2022-07-15T03:00:34;2.00;2.00;1.00
68841;PMS5003;55849;48.482;2.332;2022-07-15T03:03:36;3.00;2.75;2.00
68841;PMS5003;55849;48.482;2.332;2022-07-15T03:06:37;2.75;2.75;2.00
68841;PMS5003;55849;48.482;2.332;2022-07-15T03:09:40;3.50;2.00;1.25
68841;PMS5003;55849;48.482;2.332;2022-07-15T03:12:42;3.50;2.00;1.50
68841;PMS5003;55849;48.482;2.332;2022-07-15T03:15:44;2.75;2.75;2.00
68841;PMS5003;55849;48.482;2.332;2022-07-15T03:18:46;3.50;3.50;2.25
68841;PMS5003;55849;48.482;2.332;2022-07-15T03:21:47;2.75;2.75;2.00
68841;PMS5003;55849;48.482;2.332;2022-07-15T03:24:50;2.25;2.25;2.00
68841;PMS5003;55849;48.482;2.332;2022-07-15T03:27:52;4.25;3.00;2.00
68841;PMS5003;55849;48.482;2.332;2022-07-15T03:30:54;4.00;3.00;1.25
68841;PMS5003;55849;48.482;2.332;2022-07-15T03:33:55;2.25;2.25;2.00
68841;PMS5003;55849;48.482;2.332;2022-07-15T03:36:57;1.00;1.00;1.00
68841;PMS5003;55849;48.482;2.332;2022-07-15T03:40:00;3.00;2.00;2.00
68841;PMS5003;55849;48.482;2.332;2022-07-15T03:43:02;3.00;2.00;2.00
68841;PMS5003;55849;48.482;2.332;2022-07-15T03:46:04;3.75;3.75;2.25
68841;PMS5003;55849;48.482;2.332;2022-07-15T03:49:06;3.25;1.25;1.25
68841;PMS5003;55849;48.482;2.332;2022-07-15T03:52:08;3.00;3.00;1.75
68841;PMS5003;55849;48.482;2.332;2022-07-15T03:55:11;4.00;3.50;3.00
68841;PMS5003;55849;48.482;2.332;2022-07-15T03:58:12;4.50;3.00;2.00
68841;PMS5003;55849;48.482;2.332;2022-07-15T04:01:14;2.25;2.25;1.25
68841;PMS5003;55849;48.482;2.332;2022-07-15T04:04:15;3.00;3.00;2.00
68841;PMS5003;55849;48.482;2.332;2022-07-15T04:07:18;3.00;3.00;3.00
68841;PMS5003;55849;48.482;2.332;2022-07-15T04:10:21;3.50;3.50;1.50
68841;PMS5003;55849;48.482;2.332;2022-07-15T04:13:22;2.25;2.25;2.00
68841;PMS5003;55849;48.482;2.332;2022-07-15T04:16:24;4.50;4.50;2.25
68841;PMS5003;55849;48.482;2.332;2022-07-15T04:19:27;3.00;3.00;2.00
68841;PMS5003;55849;48.482;2.332;2022-07-15T04:22:29;3.75;3.00;2.00
68841;PMS5003;55849;48.482;2.332;2022-07-15T04:25:33;2.00;2.00;1.50
68841;PMS5003;55849;48.482;2.332;2022-07-15T04:28:34;3.25;3.00;2.00
68841;PMS5003;55849;48.482;2.332;2022-07-15T04:31:36;3.50;3.00;2.00
68841;PMS5003;55849;48.482;2.332;2022-07-15T04:34:38;6.00;4.00;2.75
68841;PMS5003;55849;48.482;2.332;2022-07-15T04:37:39;4.00;3.25;1.50
68841;PMS5003;55849;48.482;2.332;2022-07-15T04:40:43;3.25;3.25;2.00
68841;PMS5003;55849;48.482;2.332;2022-07-15T04:43:44;3.50;3.50;2.50
68841;PMS5003;55849;48.482;2.332;2022-07-15T04:46:46;4.25;3.25;2.50
68841;PMS5003;55849;48.482;2.332;2022-07-15T04:49:48;3.25;2.25;2.00
68841;PMS5003;55849;48.482;2.332;2022-07-15T04:53:07;4.00;3.75;2.75
68841;PMS5003;55849;48.482;2.332;2022-07-15T04:56:10;4.00;2.50;2.00
68841;PMS5003;55849;48.482;2.332;2022-07-15T04:59:11;3.25;3.00;2.00
68841;PMS5003;55849;48.482;2.332;2022-07-15T05:02:13;5.00;4.00;3.00
68841;PMS5003;55849;48.482;2.332;2022-07-15T05:05:15;3.00;3.00;2.00
68841;PMS5003;55849;48.482;2.332;2022-07-15T05:08:16;4.00;3.25;3.00
68841;PMS5003;55849;48.482;2.332;2022-07-15T05:11:21;4.50;3.75;2.00
68841;PMS5003;55849;48.482;2.332;2022-07-15T05:14:23;2.00;2.00;1.75
68841;PMS5003;55849;48.482;2.332;2022-07-15T05:17:25;3.75;2.00;2.00
68841;PMS5003;55849;48.482;2.332;2022-07-15T05:20:26;5.00;3.50;3.00
68841;PMS5003;55849;48.482;2.332;2022-07-15T05:23:28;3.00;3.00;2.00
68841;PMS5003;55849;48.482;2.332;2022-07-15T05:26:31;3.50;3.00;3.00
68841;PMS5003;55849;48.482;2.332;2022-07-15T05:29:35;2.50;2.50;1.75
68841;PMS5003;55849;48.482;2.332;2022-07-15T05:32:37;3.75;3.00;2.00
68841;PMS5003;55849;48.482;2.332;2022-07-15T05:35:39;3.00;2.00;1.00
68841;PMS5003;55849;48.482;2.332;2022-07-15T05:38:41;4.25;2.50;2.00
68841;PMS5003;55849;48.482;2.332;2022-07-15T05:41:44;2.00;2.00;2.00
68841;PMS5003;55849;48.482;2.332;2022-07-15T05:44:46;3.00;3.00;1.50
68841;PMS5003;55849;48.482;2.332;2022-07-15T05:47:48;4.50;3.00;2.00
68841;PMS5003;55849;48.482;2.332;2022-07-15T05:50:50;6.50;3.75;2.00
68841;PMS5003;55849;48.482;2.332;2022-07-15T05:53:51;4.50;4.00;2.00
68841;PMS5003;55849;48.482;2.332;2022-07-15T05:56:55;4.00;4.00;2.00
68841;PMS5003;55849;48.482;2.332;2022-07-15T05:59:58;4.00;4.00;2.75
68841;PMS5003;55849;48.482;2.332;2022-07-15T06:02:59;4.00;3.25;2.75
68841;PMS5003;55849;48.482;2.332;2022-07-15T06:06:02;7.25;4.00;3.00
68841;PMS5003;55849;48.482;2.332;2022-07-15T06:09:04;4.00;4.00;2.00
68841;PMS5003;55849;48.482;2.332;2022-07-15T06:12:07;4.00;4.00;3.00
68841;PMS5003;55849;48.482;2.332;2022-07-15T06:15:10;2.25;2.25;2.00
68841;PMS5003;55849;48.482;2.332;2022-07-15T06:18:12;4.00;4.00;3.00
68841;PMS5003;55849;48.482;2.332;2022-07-15T06:21:14;4.00;3.25;3.00
68841;PMS5003;55849;48.482;2.332;2022-07-15T06:24:15;4.00;4.00;3.00
68841;PMS5003;55849;48.482;2.332;2022-07-15T06:27:18;3.00;3.00;2.25
68841;PMS5003;55849;48.482;2.332;2022-07-15T06:30:21;3.25;3.00;2.00
68841;PMS5003;55849;48.482;2.332;2022-07-15T06:33:23;5.25;4.75;2.50
68841;PMS5003;55849;48.482;2.332;2022-07-15T06:36:25;2.00;2.00;2.00
68841;PMS5003;55849;48.482;2.332;2022-07-15T06:39:27;3.75;3.50;2.00
68841;PMS5003;55849;48.482;2.332;2022-07-15T06:42:30;3.00;3.00;2.75
68841;PMS5003;55849;48.482;2.332;2022-07-15T06:45:31;4.00;4.00;2.75
68841;PMS5003;55849;48.482;2.332;2022-07-15T06:48:33;2.00;2.00;2.00
68841;PMS5003;55849;48.482;2.332;2022-07-15T06:51:35;4.25;3.00;2.50
68841;PMS5003;55849;48.482;2.332;2022-07-15T06:54:36;3.00;3.00;3.00
68841;PMS5003;55849;48.482;2.332;2022-07-15T06:57:40;4.00;2.00;2.00
68841;PMS5003;55849;48.482;2.332;2022-07-15T07:00:41;3.25;3.25;2.00
68841;PMS5003;55849;48.482;2.332;2022-07-15T07:03:43;3.00;3.00;2.00
68841;PMS5003;55849;48.482;2.332;2022-07-15T07:06:45;3.00;3.00;2.00
68841;PMS5003;55849;48.482;2.332;2022-07-15T07:09:47;3.00;1.75;1.75
68841;PMS5003;55849;48.482;2.332;2022-07-15T07:12:49;3.00;3.00;2.00
68841;PMS5003;55849;48.482;2.332;2022-07-15T07:15:51;3.50;3.00;2.50
68841;PMS5003;55849;48.482;2.332;2022-07-15T07:18:53;5.00;3.00;2.00
68841;PMS5003;55849;48.482;2.332;2022-07-15T07:21:54;2.25;2.25;1.25
68841;PMS5003;55849;48.482;2.332;2022-07-15T07:24:56;3.75;1.75;1.75
68841;PMS5003;55849;48.482;2.332;2022-07-15T07:28:01;4.75;3.00;2.25
68841;PMS5003;55849;48.482;2.332;2022-07-15T07:31:03;3.25;3.25;2.25
68841;PMS5003;55849;48.482;2.332;2022-07-15T07:34:06;2.75;2.75;2.00
68841;PMS5003;55849;48.482;2.332;2022-07-15T07:37:08;3.00;3.00;2.00
68841;PMS5003;55849;48.482;2.332;2022-07-15T07:40:09;4.75;3.50;1.75
68841;PMS5003;55849;48.482;2.332;2022-07-15T07:43:12;3.00;3.00;1.25
68841;PMS5003;55849;48.482;2.332;2022-07-15T07:46:14;3.00;3.00;2.00
68841;PMS5003;55849;48.482;2.332;2022-07-15T07:49:16;6.25;3.75;3.00
68841;PMS5003;55849;48.482;2.332;2022-07-15T07:52:18;3.00;3.00;2.00
68841;PMS5003;55849;48.482;2.332;2022-07-15T07:55:20;3.00;3.00;2.75
68841;PMS5003;55849;48.482;2.332;2022-07-15T07:58:23;3.00;3.00;2.00
68841;PMS5003;55849;48.482;2.332;2022-07-15T08:01:25;4.00;4.00;3.00
68841;PMS5003;55849;48.482;2.332;2022-07-15T08:04:26;3.25;3.00;3.00
68841;PMS5003;55849;48.482;2.332;2022-07-15T08:07:28;3.50;3.50;2.50
68841;PMS5003;55849;48.482;2.332;2022-07-15T08:10:29;3.75;2.25;2.00
68841;PMS5003;55849;48.482;2.332;2022-07-15T08:13:32;3.00;3.00;2.00
68841;PMS5003;55849;48.482;2.332;2022-07-15T08:16:34;3.25;3.25;2.25
68841;PMS5003;55849;48.482;2.332;2022-07-15T08:19:42;2.25;2.25;2.00
68841;PMS5003;55849;48.482;2.332;2022-07-15T08:22:45;4.00;4.00;3.00
68841;PMS5003;55849;48.482;2.332;2022-07-15T08:25:47;4.50;3.00;2.00
68841;PMS5003;55849;48.482;2.332;2022-07-15T08:28:51;3.00;3.00;2.00
68841;PMS5003;55849;48.482;2.332;2022-07-15T08:31:53;2.75;2.75;2.00
68841;PMS5003;55849;48.482;2.332;2022-07-15T08:34:55;3.50;2.50;2.00
68841;PMS5003;55849;48.482;2.332;2022-07-15T08:37:57;3.00;3.00;2.00
68841;PMS5003;55849;48.482;2.332;2022-07-15T08:40:59;3.00;3.00;2.50
68841;PMS5003;55849;48.482;2.332;2022-07-15T08:44:02;5.00;4.25;3.50
68841;PMS5003;55849;48.482;2.332;2022-07-15T08:47:04;2.00;2.00;1.75
68841;PMS5003;55849;48.482;2.332;2022-07-15T08:50:06;3.00;3.00;2.00
68841;PMS5003;55849;48.482;2.332;2022-07-15T08:53:11;3.25;3.25;3.00
68841;PMS5003;55849;48.482;2.332;2022-07-15T08:56:12;3.25;3.00;2.25
68841;PMS5003;55849;48.482;2.332;2022-07-15T08:59:15;3.50;2.50;2.00
68841;PMS5003;55849;48.482;2.332;2022-07-15T09:02:18;4.00;3.00;2.75
68841;PMS5003;55849;48.482;2.332;2022-07-15T09:05:22;2.00;2.00;2.00
68841;PMS5003;55849;48.482;2.332;2022-07-15T09:08:26;7.00;3.25;2.00
68841;PMS5003;55849;48.482;2.332;2022-07-15T09:11:28;4.00;3.00;2.00
68841;PMS5003;55849;48.482;2.332;2022-07-15T09:14:33;2.00;2.00;2.00
68841;PMS5003;55849;48.482;2.332;2022-07-15T09:17:35;3.75;2.50;2.00
68841;PMS5003;55849;48.482;2.332;2022-07-15T09:20:37;3.25;3.25;3.00
68841;PMS5003;55849;48.482;2.332;2022-07-15T09:23:39;6.00;4.00;2.00
68841;PMS5003;55849;48.482;2.332;2022-07-15T09:26:41;3.00;3.00;2.00
68841;PMS5003;55849;48.482;2.332;2022-07-15T09:29:44;3.50;2.25;2.00
68841;PMS5003;55849;48.482;2.332;2022-07-15T09:33:05;1.50;1.50;1.00
68841;PMS5003;55849;48.482;2.332;2022-07-15T09:36:26;4.25;3.00;2.75
68841;PMS5003;55849;48.482;2.332;2022-07-15T09:39:29;5.00;3.50;3.00
68841;PMS5003;55849;48.482;2.332;2022-07-15T09:42:31;4.00;2.00;1.50
68841;PMS5003;55849;48.482;2.332;2022-07-15T09:45:34;3.25;2.00;1.25
68841;PMS5003;55849;48.482;2.332;2022-07-15T09:48:38;4.75;4.25;2.00
68841;PMS5003;55849;48.482;2.332;2022-07-15T09:51:47;2.00;2.00;2.00
68841;PMS5003;55849;48.482;2.332;2022-07-15T09:54:50;2.00;2.00;2.00
68841;PMS5003;55849;48.482;2.332;2022-07-15T09:57:51;2.00;2.00;2.00
68841;PMS5003;55849;48.482;2.332;2022-07-15T10:00:55;2.00;2.00;1.25
68841;PMS5003;55849;48.482;2.332;2022-07-15T10:03:57;6.50;3.00;2.00
68841;PMS5003;55849;48.482;2.332;2022-07-15T10:06:59;2.50;2.00;2.00
68841;PMS5003;55849;48.482;2.332;2022-07-15T10:10:01;2.00;2.00;2.00
68841;PMS5003;55849;48.482;2.332;2022-07-15T10:13:05;2.75;2.75;2.00
68841;PMS5003;55849;48.482;2.332;2022-07-15T10:16:24;6.50;3.75;2.00
68841;PMS5003;55849;48.482;2.332;2022-07-15T10:19:49;2.00;2.00;1.00
68841;PMS5003;55849;48.482;2.332;2022-07-15T10:23:10;3.25;2.50;2.00
68841;PMS5003;55849;48.482;2.332;2022-07-15T10:26:38;3.00;3.00;2.00
68841;PMS5003;55849;48.482;2.332;2022-07-15T10:29:49;2.00;2.00;1.75
68841;PMS5003;55849;48.482;2.332;2022-07-15T10:33:12;3.25;3.25;2.00
68841;PMS5003;55849;48.482;2.332;2022-07-15T10:36:16;3.75;3.75;2.00
68841;PMS5003;55849;48.482;2.332;2022-07-15T10:39:18;3.25;3.00;2.00
68841;PMS5003;55849;48.482;2.332;2022-07-15T10:42:21;4.00;3.00;2.25
68841;PMS5003;55849;48.482;2.332;2022-07-15T10:45:23;2.00;2.00;1.25
68841;PMS5003;55849;48.482;2.332;2022-07-15T10:48:27;3.00;3.00;2.00
68841;PMS5003;55849;48.482;2.332;2022-07-15T10:54:48;3.00;3.00;2.00
68841;PMS5003;55849;48.482;2.332;2022-07-15T10:57:52;1.75;1.75;1.00
68841;PMS5003;55849;48.482;2.332;2022-07-15T11:00:55;2.50;2.00;1.50
68841;PMS5003;55849;48.482;2.332;2022-07-15T11:07:24;4.25;3.00;2.00
68841;PMS5003;55849;48.482;2.332;2022-07-15T11:10:28;1.25;1.25;1.00
68841;PMS5003;55849;48.482;2.332;2022-07-15T11:13:31;1.75;1.75;1.00
68841;PMS5003;55849;48.482;2.332;2022-07-15T11:16:34;1.00;1.00;1.00
68841;PMS5003;55849;48.482;2.332;2022-07-15T11:19:37;1.00;1.00;1.00
68841;PMS5003;55849;48.482;2.332;2022-07-15T11:22:40;2.50;1.25;1.00
68841;PMS5003;55849;48.482;2.332;2022-07-15T11:25:43;3.00;1.25;1.00
68841;PMS5003;55849;48.482;2.332;2022-07-15T11:28:48;1.50;1.50;0.75
68841;PMS5003;55849;48.482;2.332;2022-07-15T11:31:50;1.25;1.25;1.00
68841;PMS5003;55849;48.482;2.332;2022-07-15T11:34:54;1.00;1.00;1.00
68841;PMS5003;55849;48.482;2.332;2022-07-15T11:37:58;1.50;1.00;1.00
68841;PMS5003;55849;48.482;2.332;2022-07-15T11:41:02;2.00;2.00;1.25
68841;PMS5003;55849;48.482;2.332;2022-07-15T11:44:22;2.00;2.00;2.00
68841;PMS5003;55849;48.482;2.332;2022-07-15T11:47:33;1.50;1.50;1.00
68841;PMS5003;55849;48.482;2.332;2022-07-15T11:50:36;3.00;3.00;2.00
68841;PMS5003;55849;48.482;2.332;2022-07-15T11:53:39;1.00;1.00;1.00
68841;PMS5003;55849;48.482;2.332;2022-07-15T11:56:42;2.00;2.00;1.00
68841;PMS5003;55849;48.482;2.332;2022-07-15T11:59:52;1.00;1.00;0.50
68841;PMS5003;55849;48.482;2.332;2022-07-15T12:03:05;2.00;1.00;1.00
68841;PMS5003;55849;48.482;2.332;2022-07-15T12:06:13;1.75;1.75;1.00
68841;PMS5003;55849;48.482;2.332;2022-07-15T12:09:16;0.00;0.00;0.00
68841;PMS5003;55849;48.482;2.332;2022-07-15T12:12:17;2.00;0.25;0.25
68841;PMS5003;55849;48.482;2.332;2022-07-15T12:15:19;0.00;0.00;0.00
68841;PMS5003;55849;48.482;2.332;2022-07-15T12:18:22;0.75;0.75;0.00
68841;PMS5003;55849;48.482;2.332;2022-07-15T12:21:25;1.00;1.00;0.00
68841;PMS5003;55849;48.482;2.332;2022-07-15T12:24:36;1.00;1.00;0.00
68841;PMS5003;55849;48.482;2.332;2022-07-15T12:27:40;1.00;1.00;0.75
68841;PMS5003;55849;48.482;2.332;2022-07-15T12:30:44;1.25;0.50;0.25
68841;PMS5003;55849;48.482;2.332;2022-07-15T12:33:46;1.00;0.50;0.50
68841;PMS5003;55849;48.482;2.332;2022-07-15T12:36:56;1.25;1.25;1.00
68841;PMS5003;55849;48.482;2.332;2022-07-15T12:39:59;1.75;1.75;1.00
68841;PMS5003;55849;48.482;2.332;2022-07-15T12:43:02;1.25;1.25;0.25
68841;PMS5003;55849;48.482;2.332;2022-07-15T12:46:04;1.00;1.00;1.00
68841;PMS5003;55849;48.482;2.332;2022-07-15T12:49:06;0.50;0.50;0.00
68841;PMS5003;55849;48.482;2.332;2022-07-15T12:52:16;1.00;1.00;1.00
68841;PMS5003;55849;48.482;2.332;2022-07-15T12:55:20;0.00;0.00;0.00
68841;PMS5003;55849;48.482;2.332;2022-07-15T12:58:25;1.00;1.00;1.00
68841;PMS5003;55849;48.482;2.332;2022-07-15T13:01:28;0.50;0.50;0.50
68841;PMS5003;55849;48.482;2.332;2022-07-15T13:04:30;0.75;0.00;0.00
68841;PMS5003;55849;48.482;2.332;2022-07-15T13:07:33;0.75;0.75;0.25
68841;PMS5003;55849;48.482;2.332;2022-07-15T13:10:35;1.00;1.00;1.00
68841;PMS5003;55849;48.482;2.332;2022-07-15T13:13:38;1.00;1.00;1.00
68841;PMS5003;55849;48.482;2.332;2022-07-15T13:16:41;1.00;1.00;0.25
68841;PMS5003;55849;48.482;2.332;2022-07-15T13:19:42;1.00;1.00;0.00
68841;PMS5003;55849;48.482;2.332;2022-07-15T13:22:45;0.00;0.00;0.00
68841;PMS5003;55849;48.482;2.332;2022-07-15T13:25:47;1.00;0.00;0.00
68841;PMS5003;55849;48.482;2.332;2022-07-15T13:28:50;1.00;1.00;1.00
68841;PMS5003;55849;48.482;2.332;2022-07-15T13:31:52;1.00;1.00;1.00
68841;PMS5003;55849;48.482;2.332;2022-07-15T13:34:54;0.50;0.50;0.25
68841;PMS5003;55849;48.482;2.332;2022-07-15T13:37:57;1.00;1.00;0.75
68841;PMS5003;55849;48.482;2.332;2022-07-15T13:40:58;0.25;0.25;0.25
68841;PMS5003;55849;48.482;2.332;2022-07-15T13:44:00;2.00;2.00;1.00
68841;PMS5003;55849;48.482;2.332;2022-07-15T13:47:02;1.50;1.00;1.00
68841;PMS5003;55849;48.482;2.332;2022-07-15T13:50:04;1.00;1.00;1.00
68841;PMS5003;55849;48.482;2.332;2022-07-15T13:53:26;3.75;0.50;0.25
68841;PMS5003;55849;48.482;2.332;2022-07-15T13:56:28;2.75;1.50;1.00
68841;PMS5003;55849;48.482;2.332;2022-07-15T13:59:29;0.75;0.75;0.75
68841;PMS5003;55849;48.482;2.332;2022-07-15T14:02:31;1.00;1.00;1.00
68841;PMS5003;55849;48.482;2.332;2022-07-15T14:05:33;1.00;1.00;0.50
68841;PMS5003;55849;48.482;2.332;2022-07-15T14:08:36;0.50;0.00;0.00
68841;PMS5003;55849;48.482;2.332;2022-07-15T14:11:38;1.00;1.00;1.00
68841;PMS5003;55849;48.482;2.332;2022-07-15T14:14:40;1.75;1.75;1.00
68841;PMS5003;55849;48.482;2.332;2022-07-15T14:17:41;1.00;1.00;0.25
68841;PMS5003;55849;48.482;2.332;2022-07-15T14:20:43;0.00;0.00;0.00
68841;PMS5003;55849;48.482;2.332;2022-07-15T14:23:48;1.00;1.00;1.00
68841;PMS5003;55849;48.482;2.332;2022-07-15T14:26:50;1.00;1.00;1.00
68841;PMS5003;55849;48.482;2.332;2022-07-15T14:29:51;0.25;0.25;0.25
68841;PMS5003;55849;48.482;2.332;2022-07-15T14:32:53;0.00;0.00;0.00
68841;PMS5003;55849;48.482;2.332;2022-07-15T14:35:55;0.25;0.25;0.25
68841;PMS5003;55849;48.482;2.332;2022-07-15T14:38:58;0.75;0.75;0.75
68841;PMS5003;55849;48.482;2.332;2022-07-15T14:41:59;0.25;0.25;0.00
68841;PMS5003;55849;48.482;2.332;2022-07-15T14:45:01;1.00;1.00;0.75
68841;PMS5003;55849;48.482;2.332;2022-07-15T14:48:05;1.00;1.00;1.00
68841;PMS5003;55849;48.482;2.332;2022-07-15T14:51:07;0.00;0.00;0.00
68841;PMS5003;55849;48.482;2.332;2022-07-15T14:54:10;0.25;0.25;0.00
68841;PMS5003;55849;48.482;2.332;2022-07-15T14:57:12;0.75;0.75;0.25
68841;PMS5003;55849;48.482;2.332;2022-07-15T15:00:14;1.50;1.50;1.25
68841;PMS5003;55849;48.482;2.332;2022-07-15T15:03:16;1.00;1.00;1.00
68841;PMS5003;55849;48.482;2.332;2022-07-15T15:06:17;1.00;1.00;1.00
68841;PMS5003;55849;48.482;2.332;2022-07-15T15:09:20;0.75;0.75;0.75
68841;PMS5003;55849;48.482;2.332;2022-07-15T15:12:22;0.25;0.25;0.25
68841;PMS5003;55849;48.482;2.332;2022-07-15T15:15:24;2.00;0.50;0.25
68841;PMS5003;55849;48.482;2.332;2022-07-15T15:18:25;1.00;1.00;1.00
68841;PMS5003;55849;48.482;2.332;2022-07-15T15:21:27;1.00;1.00;1.00
68841;PMS5003;55849;48.482;2.332;2022-07-15T15:24:31;0.00;0.00;0.00
68841;PMS5003;55849;48.482;2.332;2022-07-15T15:27:33;0.00;0.00;0.00
68841;PMS5003;55849;48.482;2.332;2022-07-15T15:30:36;1.00;1.00;0.00
68841;PMS5003;55849;48.482;2.332;2022-07-15T15:33:37;2.00;2.00;0.75
68841;PMS5003;55849;48.482;2.332;2022-07-15T15:36:39;1.25;1.00;1.00
68841;PMS5003;55849;48.482;2.332;2022-07-15T15:39:42;1.00;1.00;0.75
68841;PMS5003;55849;48.482;2.332;2022-07-15T15:42:44;0.50;0.50;0.50
68841;PMS5003;55849;48.482;2.332;2022-07-15T15:45:46;2.00;1.00;0.25
68841;PMS5003;55849;48.482;2.332;2022-07-15T15:48:47;1.00;1.00;0.00
68841;PMS5003;55849;48.482;2.332;2022-07-15T15:51:49;1.25;1.25;0.50
68841;PMS5003;55849;48.482;2.332;2022-07-15T15:54:52;0.50;0.50;0.00
68841;PMS5003;55849;48.482;2.332;2022-07-15T15:57:53;0.00;0.00;0.00
68841;PMS5003;55849;48.482;2.332;2022-07-15T16:00:55;1.00;1.00;0.50
68841;PMS5003;55849;48.482;2.332;2022-07-15T16:03:57;0.50;0.50;0.00
68841;PMS5003;55849;48.482;2.332;2022-07-15T16:06:58;0.00;0.00;0.00
68841;PMS5003;55849;48.482;2.332;2022-07-15T16:10:01;1.00;1.00;1.00
68841;PMS5003;55849;48.482;2.332;2022-07-15T16:13:03;0.75;0.75;0.00
68841;PMS5003;55849;48.482;2.332;2022-07-15T16:16:05;0.00;0.00;0.00
68841;PMS5003;55849;48.482;2.332;2022-07-15T16:19:07;0.00;0.00;0.00
68841;PMS5003;55849;48.482;2.332;2022-07-15T16:22:08;3.00;1.00;1.00
68841;PMS5003;55849;48.482;2.332;2022-07-15T16:25:30;1.00;1.00;0.75
68841;PMS5003;55849;48.482;2.332;2022-07-15T16:28:35;0.00;0.00;0.00
68841;PMS5003;55849;48.482;2.332;2022-07-15T16:31:36;1.75;1.00;1.00
68841;PMS5003;55849;48.482;2.332;2022-07-15T16:34:38;0.00;0.00;0.00
68841;PMS5003;55849;48.482;2.332;2022-07-15T16:37:39;1.00;1.00;0.50
68841;PMS5003;55849;48.482;2.332;2022-07-15T16:40:42;3.00;1.50;1.00
68841;PMS5003;55849;48.482;2.332;2022-07-15T16:43:44;1.75;1.75;1.00
68841;PMS5003;55849;48.482;2.332;2022-07-15T16:46:46;1.00;1.00;1.00
68841;PMS5003;55849;48.482;2.332;2022-07-15T16:49:47;1.00;1.00;0.75
68841;PMS5003;55849;48.482;2.332;2022-07-15T16:52:49;1.00;1.00;1.00
68841;PMS5003;55849;48.482;2.332;2022-07-15T16:55:52;0.00;0.00;0.00
68841;PMS5003;55849;48.482;2.332;2022-07-15T16:58:53;2.25;1.00;1.00
68841;PMS5003;55849;48.482;2.332;2022-07-15T17:01:55;2.25;0.50;0.25
68841;PMS5003;55849;48.482;2.332;2022-07-15T17:04:57;1.00;1.00;1.00
68841;PMS5003;55849;48.482;2.332;2022-07-15T17:07:58;2.25;1.75;0.75
68841;PMS5003;55849;48.482;2.332;2022-07-15T17:11:02;1.00;1.00;1.00
68841;PMS5003;55849;48.482;2.332;2022-07-15T17:14:04;3.25;1.50;1.00
68841;PMS5003;55849;48.482;2.332;2022-07-15T17:17:06;0.50;0.50;0.50
68841;PMS5003;55849;48.482;2.332;2022-07-15T17:20:08;1.00;0.00;0.00
68841;PMS5003;55849;48.482;2.332;2022-07-15T17:23:10;1.25;1.25;1.00
68841;PMS5003;55849;48.482;2.332;2022-07-15T17:26:13;0.50;0.50;0.00
68841;PMS5003;55849;48.482;2.332;2022-07-15T17:29:15;1.50;1.25;0.50
68841;PMS5003;55849;48.482;2.332;2022-07-15T17:32:16;1.00;1.00;0.00
68841;PMS5003;55849;48.482;2.332;2022-07-15T17:35:18;1.50;1.00;0.00
68841;PMS5003;55849;48.482;2.332;2022-07-15T17:38:20;0.75;0.75;0.50
68841;PMS5003;55849;48.482;2.332;2022-07-15T17:41:23;3.25;0.25;0.25
68841;PMS5003;55849;48.482;2.332;2022-07-15T17:44:25;1.25;1.25;1.00
68841;PMS5003;55849;48.482;2.332;2022-07-15T17:47:26;2.00;2.00;0.75
68841;PMS5003;55849;48.482;2.332;2022-07-15T17:50:28;0.25;0.25;0.25
68841;PMS5003;55849;48.482;2.332;2022-07-15T17:53:30;0.50;0.50;0.50
68841;PMS5003;55849;48.482;2.332;2022-07-15T17:56:33;1.75;1.75;1.00
68841;PMS5003;55849;48.482;2.332;2022-07-15T17:59:35;1.00;1.00;1.00